Rejestracja

Wszystkie dane podawane są w czasie UTC za wyjątkiem miejsc gdzie jest jednoznacznie podane, że jest inaczej. Dane podawane w serwisie mają charakter informacyjny!!!
Informacje w sprawie dostępu do serwisu pod numerem tel. +48 261-828-559 lub +48 261-828-138
Informacja dla żołnierzy i pracowników wojska: Prosimy o niezwłoczną zmianę adresu e-mail w profilu użytkownika na pocztę w domenie @ron.mil.pl

Aktualna Pogoda
 
Pogoda w Polsce
10°C Szczecin 19°C Suwałki 11°C Warszawa 8°C Poznan
9°C Opole 9°C Kraków 9°C Rzeszów
Więcej miast w Polsce

Pogoda w Europie
7°C Berlin 10°C Paryz 16°C Bruksela 11°C Oslo
9°C Praga 8°C Zagrzeb
Więcej miast w Europie

Metary wojskowe test
METAR EPBC 270700Z 27008KT 3000 -SHRA BKN006 11/11 Q0998=
METAR EPCE 270700Z 09012KT 9999 -RA BKN066 16/14 Q1000 RMK 159 087 7/7=
METAR EPDA 270700Z 33004KT 8000 -RA BKN009 OVC054 16/15 Q0999 RMK 158 094 8/5=
METAR EPDE 270700Z 23006KT 3500 -RA BKN007 BKN009 OVC010 10/10 Q1000 RMK 102 096 8/5=
METAR EPIR 270700Z AUTO 24014KT ///030 ///033 10/09 Q1000 RMK 103 091 ///=
METAR EPKS 270700Z 27008KT 8000 -RA SCT007 OVC050 08/08 Q1002 RMK 079 100 8/3=
METAR EPLK 270700Z 28011KT 7000 -RA OVC006 08/08 Q1001 RMK 081 100 8/8=
METAR EPLY 270700Z 26010KT 9999 -RA BKN006 OVC020 09/09 Q1000 RMK 094 078 8/6=
METAR EPMB 270700Z 07012KT 9999 BKN060 OVC100 17/13 Q0998 RMK 167 080 8/6=
METAR EPMI 270700Z 28007KT 240V300 4000 RA BKN005 OVC010 09/09 Q1001 RMK 090 098 8/5=
METAR EPMM 270700Z 26008KT 230V300 9999 -RA BKN003 OVC010 11/11 Q0998 RMK 110 098 8/7=
METAR EPOK 270700Z 10011KT 9999 -RA BKN073 17/14 Q1000 RMK 167 083 7/7=
METAR EPPR 270700Z 03006KT 9999 SCT069 BKN100 16/13 Q0999 RMK 161 080 7/4=
METAR EPPW 270700Z 26010KT 9999 DZRA OVC006 09/09 Q1001 RMK 090 100 8/8=
METAR EPSN 270700Z 27008KT 3000 DZRA BR BKN004 OVC010 10/10 Q1000 RMK 096 100 8/5=
METAR EPTM 270700Z AUTO 26006KT VV006 09/08 Q1000 RMK 089 091 ///=


 

Prawa autorskie©2007 SSH SZ RP. Wszelkie prawa zastrzeżone.